Kunia, Hawaii
Current Conditions -  °F | °C
As of 10:58 AM on Saturday 22 Nov 2014 (Local Time) from PHHI Reporting Station
Clear Clear  
Wind Chill: 79°   Ceiling: Unl
Heat Index: 81°   Visibility: 10mi
Dew Point: 64°   Wind: 10mph
Humidity: 60%   Direction: 100°E
Pressure: 30.09"   Gusts: NA
Location:  21.48°N, 158.07°W
Report Text: PHHI 222058Z AUTO 10009KT 10SM CLR 26/18 A3009 RMK AO2 SLP179 60000 T02630179 50004 $
Loading
Personal Weather Stations






























Interactive Weather Map New forecast layout! Learn more

10-Day Weather Forecast

Advertisements
Track Severe Weather on mobile